Time;durP1;ratioP1;P1;durP2;ratioP2;P2;SDS_P1;SDS_P2;PMS_P1;PMS_P2;Temp;Humidity;BMP_temperature;BMP_pressure;BME280_temperature;BME280_humidity;BME280_pressure;Samples;Min_cycle;Max_cycle;Signal;HPM_P1;HPM_P2
2022/12/16 00:00:03;;;;;;;13.48;12.23;;;;;;;;;;5052318;28;20405;-89
2022/12/16 00:02:29;;;;;;;13.20;12.00;;;;;;;;;;5052305;28;20443;-89
2022/12/16 00:04:56;;;;;;;13.23;11.93;;;;;;;;;;5034494;28;20889;-89
2022/12/16 00:07:22;;;;;;;13.00;11.85;;;;;;;;;;5052229;28;20417;-90
2022/12/16 00:09:48;;;;;;;13.20;12.00;;;;;;;;;;5049770;28;20398;-90
2022/12/16 00:12:14;;;;;;;12.32;11.23;;;;;;;;;;5051196;28;20402;-91
2022/12/16 00:14:40;;;;;;;11.95;10.85;;;;;;;;;;5050205;28;20377;-90
2022/12/16 00:17:06;;;;;;;12.95;11.75;;;;;;;;;;5044568;28;20908;-90
2022/12/16 00:19:32;;;;;;;12.60;11.40;;;;;;;;;;5051897;28;20401;-90
2022/12/16 00:21:58;;;;;;;12.70;11.50;;;;;;;;;;5052013;28;20389;-89
2022/12/16 00:24:24;;;;;;;12.40;11.30;;;;;;;;;;5051930;28;20734;-89
2022/12/16 00:26:51;;;;;;;12.77;11.57;;;;;;;;;;5051948;28;20373;-89
2022/12/16 00:29:17;;;;;;;12.32;11.23;;;;;;;;;;5051802;28;20389;-89
2022/12/16 00:31:46;;;;;;;12.45;11.35;;;;;;;;;;5047695;28;20375;-90
2022/12/16 00:34:12;;;;;;;13.07;11.88;;;;;;;;;;5039382;28;20390;-90
2022/12/16 00:36:38;;;;;;;13.50;12.20;;;;;;;;;;5038864;28;20430;-89
2022/12/16 00:39:04;;;;;;;12.02;10.93;;;;;;;;;;5044185;28;20389;-88
2022/12/16 00:41:30;;;;;;;11.85;10.85;;;;;;;;;;5045811;28;20411;-89
2022/12/16 00:43:56;;;;;;;12.60;11.45;;;;;;;;;;5038175;28;20861;-89
2022/12/16 00:46:22;;;;;;;12.80;11.63;;;;;;;;;;5034729;28;20379;-89
2022/12/16 00:48:48;;;;;;;12.13;11.02;;;;;;;;;;5033729;28;20442;-89
2022/12/16 00:51:14;;;;;;;12.37;11.27;;;;;;;;;;5015690;28;20920;-88
2022/12/16 00:53:40;;;;;;;12.55;11.45;;;;;;;;;;5035482;28;20426;-88
2022/12/16 00:56:10;;;;;;;12.57;11.48;;;;;;;;;;5021315;28;20446;-88
2022/12/16 00:58:37;;;;;;;13.67;12.43;;;;;;;;;;5045978;28;20798;-88
2022/12/16 01:01:03;;;;;;;13.77;12.48;;;;;;;;;;5036987;28;20442;-88
2022/12/16 01:03:29;;;;;;;13.90;12.60;;;;;;;;;;5030938;28;20449;-89
2022/12/16 01:05:55;;;;;;;14.63;13.13;;;;;;;;;;5032807;28;20891;-88
2022/12/16 01:08:21;;;;;;;13.98;12.68;;;;;;;;;;5030248;28;20871;-89
2022/12/16 01:10:54;;;;;;;14.80;13.30;;;;;;;;;;5031732;28;21128;-90
2022/12/16 01:13:21;;;;;;;13.90;12.57;;;;;;;;;;5031358;28;20475;-88
2022/12/16 01:15:47;;;;;;;13.30;12.10;;;;;;;;;;5031315;28;20410;-88
2022/12/16 01:18:13;;;;;;;13.00;11.80;;;;;;;;;;5035503;28;20457;-89
2022/12/16 01:20:39;;;;;;;13.00;11.90;;;;;;;;;;5030125;28;20421;-89
2022/12/16 01:23:05;;;;;;;13.00;11.80;;;;;;;;;;5028747;28;20377;-88
2022/12/16 01:25:31;;;;;;;12.88;11.68;;;;;;;;;;5032471;28;20391;-89
2022/12/16 01:27:57;;;;;;;13.02;11.93;;;;;;;;;;5034241;28;20401;-89
2022/12/16 01:30:23;;;;;;;12.40;11.30;;;;;;;;;;5033464;28;20379;-90
2022/12/16 01:32:49;;;;;;;12.47;11.37;;;;;;;;;;5029594;28;20386;-89
2022/12/16 01:35:15;;;;;;;13.05;11.88;;;;;;;;;;5028936;28;20379;-88
2022/12/16 01:37:41;;;;;;;12.60;11.40;;;;;;;;;;5041373;28;20452;-90
2022/12/16 01:40:15;;;;;;;12.13;11.02;;;;;;;;;;5048748;28;20433;-89
2022/12/16 01:42:43;;;;;;;13.23;12.02;;;;;;;;;;5031862;28;20380;-89
2022/12/16 01:45:25;;;;;;;12.30;11.20;;;;;;;;;;5050116;28;20927;-88
2022/12/16 01:47:54;;;;;;;12.05;10.95;;;;;;;;;;5054926;28;20369;-89
2022/12/16 01:50:20;;;;;;;12.60;11.40;;;;;;;;;;5035150;28;20385;-89
2022/12/16 01:52:51;;;;;;;13.10;11.85;;;;;;;;;;5054851;28;20381;-88
2022/12/16 01:55:24;;;;;;;12.10;11.00;;;;;;;;;;5036339;28;20389;-89
2022/12/16 01:57:52;;;;;;;11.80;10.80;;;;;;;;;;5050303;28;20389;-89
2022/12/16 02:00:19;;;;;;;12.52;11.23;;;;;;;;;;5054308;28;20492;-89
2022/12/16 02:02:46;;;;;;;11.68;10.68;;;;;;;;;;5054128;28;20408;-88
2022/12/16 02:05:19;;;;;;;12.50;11.30;;;;;;;;;;5043182;28;20421;-90
2022/12/16 02:07:54;;;;;;;12.70;11.50;;;;;;;;;;5035482;28;20444;-89
2022/12/16 02:10:23;;;;;;;14.07;12.77;;;;;;;;;;5033679;28;20804;-88
2022/12/16 02:13:15;;;;;;;13.30;12.10;;;;;;;;;;5016196;28;20402;-88
2022/12/16 02:15:41;;;;;;;12.40;11.30;;;;;;;;;;5008395;28;20391;-89
2022/12/16 02:18:16;;;;;;;12.73;11.63;;;;;;;;;;5044302;28;20457;-89
2022/12/16 02:20:55;;;;;;;12.77;11.57;;;;;;;;;;5016622;28;20486;-88
2022/12/16 02:23:30;;;;;;;12.43;11.32;;;;;;;;;;5037920;28;20536;-88
2022/12/16 02:25:56;;;;;;;13.65;12.40;;;;;;;;;;5033382;28;20868;-90
2022/12/16 02:28:34;;;;;;;13.68;12.38;;;;;;;;;;5033830;28;20381;-89
2022/12/16 02:31:07;;;;;;;13.25;12.05;;;;;;;;;;5034126;28;20375;-89
2022/12/16 02:33:43;;;;;;;12.90;11.73;;;;;;;;;;5035182;28;20385;-87
2022/12/16 02:36:21;;;;;;;12.93;11.80;;;;;;;;;;5033639;28;20375;-89
2022/12/16 02:38:50;;;;;;;13.55;12.35;;;;;;;;;;5047044;28;20403;-90
2022/12/16 02:41:31;;;;;;;13.35;12.15;;;;;;;;;;5051324;28;20435;-88
2022/12/16 02:44:08;;;;;;;13.85;12.45;;;;;;;;;;5034120;28;21050;-89
2022/12/16 02:46:39;;;;;;;13.50;12.25;;;;;;;;;;5033913;28;20394;-89
2022/12/16 02:49:06;;;;;;;13.70;12.40;;;;;;;;;;5053610;28;20766;-91
2022/12/16 02:51:33;;;;;;;14.00;12.60;;;;;;;;;;5048204;28;20868;-89
2022/12/16 02:53:59;;;;;;;14.80;13.40;;;;;;;;;;5035043;28;20425;-89
2022/12/16 02:56:48;;;;;;;14.68;13.38;;;;;;;;;;5032958;28;20391;-88
2022/12/16 02:59:30;;;;;;;14.47;13.17;;;;;;;;;;5033127;28;20531;-89
2022/12/16 03:02:04;;;;;;;14.15;12.82;;;;;;;;;;5032626;28;20394;-91
2022/12/16 03:04:39;;;;;;;14.60;13.20;;;;;;;;;;5037912;28;20398;-88
2022/12/16 03:07:06;;;;;;;14.80;13.38;;;;;;;;;;5053024;28;20528;-90
2022/12/16 03:09:34;;;;;;;15.05;13.65;;;;;;;;;;5052582;28;20391;-91
2022/12/16 03:12:02;;;;;;;15.93;14.43;;;;;;;;;;5053261;28;20393;-90
2022/12/16 03:14:31;;;;;;;16.10;14.55;;;;;;;;;;5053480;28;20805;-90
2022/12/16 03:16:58;;;;;;;17.13;15.43;;;;;;;;;;5036244;28;20875;-89
2022/12/16 03:19:25;;;;;;;15.40;13.88;;;;;;;;;;5017662;28;20424;-90
2022/12/16 03:21:56;;;;;;;17.40;15.70;;;;;;;;;;5033489;28;20389;-90
2022/12/16 03:24:23;;;;;;;17.90;16.10;;;;;;;;;;5045523;28;20386;-89
2022/12/16 03:26:52;;;;;;;18.58;16.67;;;;;;;;;;5047876;28;20380;-90
2022/12/16 03:29:25;;;;;;;19.92;17.48;;;;;;;;;;5042267;28;20381;-90
2022/12/16 03:32:05;;;;;;;19.50;17.40;;;;;;;;;;5051935;28;20409;-90
2022/12/16 03:34:34;;;;;;;20.98;18.48;;;;;;;;;;5049264;28;20418;-89
2022/12/16 03:37:03;;;;;;;22.30;18.20;;;;;;;;;;5035498;28;20386;-90
2022/12/16 03:39:29;;;;;;;22.38;19.27;;;;;;;;;;5052175;28;20445;-91
2022/12/16 03:41:55;;;;;;;42.17;24.85;;;;;;;;;;5052660;28;20943;-89
2022/12/16 03:44:22;;;;;;;27.00;21.03;;;;;;;;;;5052731;28;20370;-89
2022/12/16 03:46:48;;;;;;;24.02;19.77;;;;;;;;;;5052587;28;20921;-90
2022/12/16 03:49:14;;;;;;;24.65;18.98;;;;;;;;;;5052898;28;20720;-89
2022/12/16 03:51:40;;;;;;;23.70;19.33;;;;;;;;;;5043159;28;20379;-89
2022/12/16 03:54:06;;;;;;;22.83;19.35;;;;;;;;;;5051146;28;20373;-89
2022/12/16 03:56:32;;;;;;;31.10;22.38;;;;;;;;;;5052530;28;20377;-89
2022/12/16 03:58:59;;;;;;;23.45;18.98;;;;;;;;;;5052373;28;20385;-90
2022/12/16 04:01:25;;;;;;;22.55;18.85;;;;;;;;;;5052333;28;20472;-90
2022/12/16 04:03:51;;;;;;;24.85;20.08;;;;;;;;;;5052361;28;20381;-89
2022/12/16 04:06:17;;;;;;;22.88;19.30;;;;;;;;;;5052221;28;20464;-90
2022/12/16 04:08:45;;;;;;;21.67;18.73;;;;;;;;;;5055645;28;20858;-89
2022/12/16 04:25:16;;;;;;;22.50;19.45;;;;;;;;;;5053357;28;20409;-91
2022/12/16 04:27:45;;;;;;;23.63;19.48;;;;;;;;;;5052432;28;20426;-90
2022/12/16 04:30:18;;;;;;;23.80;19.42;;;;;;;;;;5052375;28;20419;-89
